Time;durP1;ratioP1;P1;durP2;ratioP2;P2;SDS_P1;SDS_P2;PMS_P1;PMS_P2;Temp;Humidity;BMP_temperature;BMP_pressure;BME280_temperature;BME280_humidity;BME280_pressure;Samples;Min_cycle;Max_cycle;Signal;HPM_P1;HPM_P2
2023/01/11 00:03:16;;;;;;;6.03;1.93;;;5.40;99.90;;;3.14;93.40;100167.34;10441646;28;20060;-76
2023/01/11 00:08:20;;;;;;;3.90;1.97;;;5.40;99.90;;;3.10;93.58;100163.28;10445718;28;20062;-76
2023/01/11 00:13:23;;;;;;;5.53;2.13;;;5.40;99.90;;;3.03;93.68;100165.53;10449834;28;20061;-76
2023/01/11 00:18:26;;;;;;;3.40;2.13;;;5.30;99.90;;;3.03;93.61;100177.84;10430262;28;20061;-76
2023/01/11 00:23:31;;;;;;;4.33;2.03;;;5.30;99.90;;;3.00;93.95;100173.69;10462664;28;20070;-76
2023/01/11 00:28:34;;;;;;;3.43;2.10;;;5.20;99.90;;;2.98;93.71;100169.47;10444935;28;20061;-76
2023/01/11 00:33:37;;;;;;;3.60;1.60;;;5.20;99.90;;;2.98;93.82;100185.22;10461857;28;20064;-76
2023/01/11 00:38:42;;;;;;;3.53;1.90;;;5.20;99.90;;;2.95;93.68;100176.66;10435737;28;20058;-76
2023/01/11 00:49:07;;;;;;;4.43;2.00;;;5.20;99.90;;;2.91;93.48;100188.34;10450974;28;20064;-75
2023/01/11 00:54:10;;;;;;;4.57;2.37;;;5.20;99.90;;;2.87;93.55;100186.88;10445985;28;20107;-75
2023/01/11 00:59:13;;;;;;;5.87;1.83;;;5.20;99.90;;;2.83;93.93;100185.47;10445291;28;20061;-76
2023/01/11 01:04:16;;;;;;;3.20;1.90;;;5.10;99.90;;;2.82;93.85;100193.44;10445086;28;20116;-76
2023/01/11 01:09:19;;;;;;;4.87;1.90;;;5.10;99.90;;;2.81;93.63;100197.88;10452879;28;20065;-76
2023/01/11 01:14:25;;;;;;;4.20;1.83;;;5.10;99.90;;;2.79;93.71;100202.41;10467752;28;23097;-76
2023/01/11 01:19:30;;;;;;;4.60;1.97;;;5.10;99.90;;;2.80;93.86;100200.63;10457241;28;20065;-76
2023/01/11 01:24:34;;;;;;;3.30;2.00;;;5.10;99.90;;;2.87;93.50;100197.38;10445533;28;20140;-76
2023/01/11 01:29:36;;;;;;;4.77;1.73;;;5.10;99.90;;;2.87;93.27;100202.63;10449829;28;20574;-75
2023/01/11 01:34:39;;;;;;;2.93;1.97;;;5.10;99.90;;;2.86;92.90;100202.75;10472604;28;20175;-76
2023/01/11 01:39:42;;;;;;;3.90;2.00;;;5.10;99.90;;;2.85;93.03;100203.72;10452863;28;20067;-76
2023/01/11 01:45:26;;;;;;;4.60;1.87;;;5.10;99.90;;;2.82;92.89;100217.94;10472393;28;20407;-75
2023/01/11 01:50:46;;;;;;;2.77;1.67;;;5.10;99.90;;;2.76;92.81;100217.53;10424007;28;20426;-75
2023/01/11 01:55:56;;;;;;;5.87;2.20;;;5.10;99.90;;;2.69;93.26;100228.50;10489803;28;20136;-76
2023/01/11 02:01:45;;;;;;;3.13;1.80;;;5.00;99.90;;;2.64;92.92;100227.22;10459481;28;20057;-76
2023/01/11 02:06:22;;;;;;;4.03;1.97;;;5.00;99.90;;;2.51;93.44;100224.66;10445686;28;20088;-76
2023/01/11 02:11:29;;;;;;;4.23;1.80;;;4.90;99.90;;;2.39;94.03;100226.41;10437475;28;20054;-76
2023/01/11 02:16:33;;;;;;;4.67;2.47;;;4.80;99.90;;;2.36;94.55;100212.72;10422399;28;20415;-76
2023/01/11 02:21:57;;;;;;;3.87;1.90;;;4.70;99.90;;;2.30;94.83;100227.13;10427298;28;20157;-76
2023/01/11 02:27:31;;;;;;;2.63;1.53;;;4.60;99.90;;;2.22;95.00;100232.09;10446196;28;20062;-75
2023/01/11 02:33:07;;;;;;;4.40;1.70;;;4.60;99.90;;;2.17;95.16;100241.25;10441504;28;20080;-76
2023/01/11 02:38:28;;;;;;;3.30;1.63;;;4.50;99.90;;;2.08;95.45;100245.38;10436556;28;20062;-76
2023/01/11 02:49:30;;;;;;;3.17;1.83;;;4.40;99.90;;;2.08;96.59;100245.38;10435415;28;20063;-76
2023/01/11 02:54:38;;;;;;;3.47;1.83;;;4.40;99.90;;;2.08;96.54;100251.44;10437979;28;20127;-76
2023/01/11 02:59:41;;;;;;;4.53;1.70;;;4.40;99.90;;;1.98;96.37;100241.75;10429125;28;20104;-76
2023/01/11 03:04:44;;;;;;;4.40;1.87;;;4.40;99.90;;;1.91;96.72;100237.91;10463759;28;20730;-76
2023/01/11 03:10:11;;;;;;;3.20;1.70;;;4.30;99.90;;;1.88;96.94;100228.50;10463112;28;20448;-76
2023/01/11 03:15:55;;;;;;;6.67;1.70;;;4.30;99.90;;;1.88;97.45;100242.44;10454071;28;20057;-76
2023/01/11 03:21:19;;;;;;;4.63;1.70;;;4.30;99.90;;;1.86;97.23;100252.19;10468926;28;20093;-76
2023/01/11 03:26:35;;;;;;;5.03;1.57;;;4.20;99.90;;;1.80;97.17;100267.50;10457350;28;20069;-76
2023/01/11 03:31:53;;;;;;;3.13;1.70;;;4.20;99.90;;;1.68;97.66;100258.75;10460024;28;20120;-76
2023/01/11 03:37:05;;;;;;;3.90;1.97;;;4.10;99.90;;;1.57;97.66;100277.84;10483775;28;20063;-76
2023/01/11 03:42:10;;;;;;;5.40;1.93;;;4.00;99.90;;;1.43;97.94;100279.75;10426744;28;20106;-76
2023/01/11 03:47:17;;;;;;;3.17;1.37;;;3.90;99.90;;;1.26;98.21;100283.53;10462556;28;20054;-76
2023/01/11 03:52:27;;;;;;;6.93;3.87;;;3.70;99.90;;;1.08;98.75;100296.13;10462864;28;20089;-76
2023/01/11 03:57:36;;;;;;;5.67;3.10;;;3.60;99.90;;;0.95;99.03;100295.28;10445077;28;20506;-76
2023/01/11 04:02:40;;;;;;;7.20;3.40;;;3.40;99.90;;;0.79;99.54;100300.72;10442763;28;20053;-76
2023/01/11 04:07:43;;;;;;;9.97;3.73;;;3.30;99.90;;;0.63;100.00;100292.22;10427053;28;20140;-76
2023/01/11 04:12:47;;;;;;;7.57;3.50;;;3.10;99.90;;;0.46;100.00;100268.00;10476838;28;20061;-76
2023/01/11 04:17:50;;;;;;;5.13;2.73;;;3.00;99.90;;;0.37;100.00;100254.72;10459550;28;20502;-76
2023/01/11 04:22:53;;;;;;;8.13;2.30;;;2.80;99.90;;;0.36;100.00;100271.34;10468680;28;20060;-75
2023/01/11 04:27:56;;;;;;;5.73;2.73;;;2.80;99.90;;;0.37;100.00;100262.56;10472076;28;20057;-75
2023/01/11 04:32:59;;;;;;;5.37;2.53;;;2.80;99.90;;;0.37;100.00;100275.66;10507730;28;20072;-76
2023/01/11 04:38:02;;;;;;;7.27;2.70;;;2.80;99.90;;;0.45;100.00;100296.88;10427827;28;20107;-75
2023/01/11 04:43:05;;;;;;;5.43;3.03;;;2.90;99.90;;;0.62;100.00;100303.63;10452892;28;20427;-75
2023/01/11 04:48:07;;;;;;;10.47;4.17;;;3.00;99.90;;;0.63;100.00;100308.75;10484821;28;20080;-76
2023/01/11 04:53:10;;;;;;;5.87;2.97;;;3.00;99.90;;;0.59;100.00;100282.88;10452373;28;20057;-76
2023/01/11 04:58:13;;;;;;;4.87;2.47;;;3.00;99.90;;;0.69;100.00;100284.78;10457935;28;20528;-76
2023/01/11 05:03:16;;;;;;;7.53;3.10;;;3.10;99.90;;;0.75;100.00;100309.69;10440702;28;20081;-75
2023/01/11 05:08:19;;;;;;;4.40;2.63;;;3.20;99.90;;;0.75;100.00;100314.94;10424128;28;20061;-75
2023/01/11 05:13:40;;;;;;;4.40;2.80;;;3.20;99.90;;;0.69;100.00;100320.56;10441163;28;20061;-75
2023/01/11 05:18:55;;;;;;;4.67;2.60;;;3.10;99.90;;;0.63;100.00;100290.44;10453951;28;20526;-75
2023/01/11 05:24:02;;;;;;;5.90;2.93;;;3.10;99.90;;;0.62;100.00;100330.59;10456461;28;20083;-75
2023/01/11 05:29:12;;;;;;;4.97;2.77;;;3.10;99.90;;;0.54;100.00;100306.75;10444872;28;20058;-76
2023/01/11 05:34:16;;;;;;;6.87;3.13;;;3.00;99.90;;;0.43;100.00;100322.31;10436059;28;20061;-78
2023/01/11 05:39:21;;;;;;;5.67;2.60;;;2.90;99.90;;;0.30;100.00;100330.09;10433206;28;20409;-78
2023/01/11 05:49:46;;;;;;;8.25;4.03;;;2.70;99.90;;;0.00;100.00;100312.00;10454606;28;20115;-80
2023/01/11 05:54:49;;;;;;;12.40;5.67;;;2.60;99.90;;;-0.11;100.00;100320.53;10415208;28;20506;-80
2023/01/11 05:59:52;;;;;;;10.20;3.90;;;2.40;99.90;;;-0.24;100.00;100316.13;10444522;28;20495;-80
2023/01/11 06:04:55;;;;;;;9.93;4.40;;;2.30;99.90;;;-0.32;100.00;100320.06;10431783;28;20065;-80
2023/01/11 06:09:58;;;;;;;9.23;4.57;;;2.20;99.90;;;-0.36;100.00;100299.47;10431403;28;20061;-78
2023/01/11 06:15:01;;;;;;;6.80;3.40;;;2.10;99.90;;;-0.39;100.00;100307.50;10450930;28;20418;-77
2023/01/11 06:20:05;;;;;;;7.87;3.70;;;2.10;99.90;;;-0.39;100.00;100310.94;10455587;28;20058;-78
2023/01/11 06:25:08;;;;;;;6.87;3.70;;;2.10;99.90;;;-0.41;100.00;100318.06;10454394;28;20068;-78
2023/01/11 06:30:12;;;;;;;8.00;4.30;;;2.10;99.90;;;-0.39;100.00;100323.16;10456001;28;20061;-78
2023/01/11 06:35:15;;;;;;;6.83;3.50;;;2.10;99.90;;;-0.43;100.00;100313.84;10435378;28;20059;-77
2023/01/11 06:40:18;;;;;;;18.87;7.60;;;2.10;99.90;;;-0.45;100.00;100320.94;10467634;28;20514;-77
2023/01/11 06:45:21;;;;;;;12.33;5.43;;;2.10;99.90;;;-0.44;100.00;100322.63;10455539;28;20505;-78
2023/01/11 06:50:25;;;;;;;9.77;4.40;;;2.10;99.90;;;-0.42;100.00;100331.19;10430615;28;20056;-78
2023/01/11 06:55:29;;;;;;;9.07;3.97;;;2.10;99.90;;;-0.29;100.00;100304.22;10476916;28;20111;-78
2023/01/11 07:00:32;;;;;;;8.23;4.50;;;2.10;99.90;;;-0.05;100.00;100303.63;10436509;28;20506;-77
2023/01/11 07:05:35;;;;;;;8.77;4.20;;;2.30;99.90;;;0.33;100.00;100334.28;10442998;28;20120;-77
2023/01/11 07:10:38;;;;;;;10.97;4.77;;;2.50;99.90;;;0.79;100.00;100351.25;10457053;28;20157;-77
2023/01/11 07:15:44;;;;;;;9.33;4.67;;;2.80;99.90;;;1.17;100.00;100345.22;10414440;28;20065;-78
2023/01/11 07:20:47;;;;;;;10.20;4.17;;;3.10;99.90;;;1.49;100.00;100339.53;10439246;28;20084;-78
2023/01/11 07:25:50;;;;;;;8.83;4.27;;;3.30;99.90;;;1.85;100.00;100371.03;10459535;28;20085;-78
2023/01/11 07:30:53;;;;;;;8.00;4.83;;;3.70;99.90;;;2.21;100.00;100381.63;10422586;28;20494;-78
2023/01/11 07:36:04;;;;;;;11.70;6.23;;;4.10;99.90;;;2.46;100.00;100380.69;10437617;28;20072;-78
2023/01/11 07:46:28;;;;;;;13.88;7.25;;;4.60;99.90;;;3.09;100.00;100392.66;10445227;28;20050;-78
2023/01/11 07:51:32;;;;;;;14.63;6.57;;;4.90;99.90;;;3.38;100.00;100382.56;10453236;28;20152;-76
2023/01/11 07:56:35;;;;;;;11.37;5.43;;;5.10;99.90;;;3.79;100.00;100379.38;10473298;28;20065;-76
2023/01/11 08:01:38;;;;;;;9.60;5.30;;;5.40;99.90;;;4.22;100.00;100376.81;10442795;28;20062;-76
2023/01/11 08:06:42;;;;;;;11.83;5.73;;;5.80;99.90;;;4.69;100.00;100381.84;10462120;28;20068;-77
2023/01/11 08:17:16;;;;;;;9.23;5.32;;;6.50;99.90;;;5.43;100.00;100373.88;10461194;28;20057;-77
2023/01/11 08:22:19;;;;;;;17.27;8.33;;;6.90;99.90;;;5.81;98.84;100376.69;10444997;28;20062;-76
2023/01/11 08:27:22;;;;;;;13.47;7.20;;;7.30;99.90;;;6.23;97.34;100370.47;10434139;28;20087;-76
2023/01/11 08:32:28;;;;;;;10.67;5.20;;;7.60;99.90;;;6.52;93.73;100383.72;10442283;28;20065;-76
2023/01/11 08:37:31;;;;;;;10.20;5.87;;;7.90;99.90;;;6.85;92.33;100390.41;10440741;28;20050;-76
2023/01/11 08:42:34;;;;;;;11.50;5.63;;;8.40;99.90;;;7.22;90.27;100390.53;10461621;28;20427;-76
2023/01/11 08:47:37;;;;;;;11.13;6.60;;;8.90;99.90;;;7.56;88.47;100382.06;10429513;28;20530;-76
2023/01/11 08:52:42;;;;;;;6.17;3.83;;;9.30;99.90;;;7.82;86.08;100388.41;10444035;28;20065;-76
2023/01/11 08:57:45;;;;;;;4.70;2.93;;;9.60;99.90;;;7.93;83.33;100393.53;10445123;28;20089;-76
2023/01/11 09:02:48;;;;;;;6.87;3.30;;;9.70;99.90;;;7.83;80.54;100395.34;10467652;28;20155;-76
2023/01/11 09:07:54;;;;;;;6.97;3.50;;;9.60;99.90;;;7.28;79.26;100402.34;10443600;28;20065;-76
2023/01/11 09:12:58;;;;;;;6.97;3.20;;;9.20;99.90;;;6.59;79.44;100385.66;10473206;28;20065;-77
2023/01/11 09:18:02;;;;;;;6.87;3.80;;;8.70;99.90;;;6.08;81.00;100396.41;10406297;28;20068;-76
2023/01/11 09:23:05;;;;;;;4.70;3.00;;;8.20;99.90;;;6.16;81.61;100400.03;10428352;28;20054;-76
2023/01/11 09:28:08;;;;;;;5.00;2.63;;;8.30;99.90;;;6.70;81.65;100384.69;10456083;28;20061;-76
2023/01/11 09:33:11;;;;;;;4.63;2.60;;;8.80;99.90;;;7.34;80.62;100373.53;10466589;28;20057;-76
2023/01/11 09:38:14;;;;;;;4.60;2.53;;;9.60;99.90;;;7.94;78.39;100367.88;10443129;28;20061;-77
2023/01/11 09:43:23;;;;;;;4.53;2.55;;;10.20;99.90;;;8.44;77.92;100359.53;10467801;28;20061;-76
2023/01/11 09:48:37;;;;;;;3.40;2.38;;;10.70;99.90;;;8.95;77.12;100355.38;10483741;28;20061;-77
2023/01/11 09:53:45;;;;;;;3.42;2.30;;;11.30;99.90;;;9.27;74.57;100350.31;10466909;28;20061;-77
2023/01/11 09:59:56;;;;;;;3.40;1.98;;;11.70;99.90;;;9.22;72.94;100347.28;10476224;28;20064;-77
2023/01/11 10:05:18;;;;;;;5.07;2.83;;;11.60;98.60;;;8.68;72.90;100359.78;10445514;28;20116;-76
2023/01/11 10:10:47;;;;;;;11.20;4.93;;;10.90;99.90;;;8.14;73.53;100355.38;10490601;28;20061;-77
2023/01/11 10:16:31;;;;;;;11.50;5.27;;;10.40;99.90;;;7.66;75.21;100359.91;10423853;28;20054;-76
2023/01/11 10:22:08;;;;;;;11.60;6.13;;;10.00;99.90;;;7.24;76.50;100347.09;10417222;28;20053;-76
2023/01/11 10:27:36;;;;;;;9.67;5.50;;;9.60;99.90;;;7.01;78.35;100337.81;10442223;28;20061;-76
2023/01/11 10:32:56;;;;;;;10.10;5.37;;;9.30;99.90;;;6.83;80.05;100334.22;10454430;28;20053;-76
2023/01/11 10:38:29;;;;;;;12.30;6.80;;;9.10;99.90;;;6.67;81.12;100335.66;10444332;28;20064;-76
2023/01/11 10:43:42;;;;;;;15.93;5.87;;;8.90;99.90;;;6.58;82.20;100341.75;10462136;28;20067;-76
2023/01/11 10:48:46;;;;;;;9.87;4.80;;;8.80;99.90;;;6.55;82.54;100341.22;10449336;28;20116;-77
2023/01/11 10:54:11;;;;;;;5.40;3.07;;;8.80;99.90;;;6.59;81.63;100346.06;10475170;28;20065;-76
2023/01/11 10:59:40;;;;;;;5.07;2.00;;;8.80;99.90;;;7.17;81.57;100332.78;10490495;28;20065;-76
2023/01/11 11:04:42;;;;;;;4.07;1.70;;;9.60;99.90;;;7.82;81.11;100327.56;10428641;28;20057;-77
2023/01/11 11:09:54;;;;;;;2.40;1.60;;;10.30;99.90;;;8.12;79.69;100321.13;10465553;28;20148;-77
2023/01/11 11:15:22;;;;;;;2.70;1.70;;;10.60;99.90;;;8.50;78.52;100314.75;10440637;28;20061;-77
2023/01/11 11:20:31;;;;;;;4.67;2.47;;;11.00;99.90;;;8.57;75.39;100304.38;10487790;28;20060;-77
2023/01/11 11:25:40;;;;;;;5.27;1.97;;;11.00;99.90;;;8.48;76.05;100302.66;10432855;28;20429;-76
2023/01/11 11:30:47;;;;;;;4.30;2.07;;;10.80;99.90;;;8.26;74.55;100288.81;10441601;28;20422;-77
2023/01/11 11:36:09;;;;;;;5.70;2.70;;;10.50;99.90;;;8.08;74.58;100268.63;10411733;28;20500;-77
2023/01/11 11:41:16;;;;;;;7.23;2.87;;;10.40;99.90;;;7.90;74.09;100271.25;10457348;28;20062;-77
2023/01/11 11:46:28;;;;;;;8.53;3.40;;;10.20;99.90;;;7.74;74.99;100274.56;10469626;28;20061;-77
2023/01/11 11:51:32;;;;;;;7.50;3.20;;;10.00;99.90;;;7.65;75.53;100283.38;10452441;28;20519;-77
2023/01/11 11:56:40;;;;;;;4.73;2.67;;;9.90;99.90;;;7.57;75.59;100281.47;10408282;28;20415;-77
2023/01/11 12:01:48;;;;;;;6.33;2.90;;;9.80;99.90;;;7.50;75.83;100275.94;10449907;28;20062;-77
2023/01/11 12:07:07;;;;;;;5.50;2.83;;;9.70;99.90;;;7.47;75.70;100285.94;10455509;28;20066;-77
2023/01/11 12:12:20;;;;;;;3.57;1.87;;;9.70;99.90;;;7.44;74.91;100280.97;10459804;28;20062;-77
2023/01/11 12:17:26;;;;;;;3.73;2.07;;;9.70;99.90;;;7.41;74.55;100281.25;10467163;28;20072;-76
2023/01/11 12:22:29;;;;;;;4.03;1.40;;;9.70;99.90;;;7.40;74.61;100284.88;10446579;28;20503;-77
2023/01/11 12:28:10;;;;;;;5.47;1.57;;;9.70;99.90;;;7.37;75.10;100287.78;10469131;28;20058;-77
2023/01/11 12:33:39;;;;;;;360.53;92.03;;;9.70;99.90;;;7.37;74.40;100296.56;10450550;28;20154;-77
2023/01/11 12:38:52;;;;;;;50.30;16.23;;;9.70;99.90;;;7.37;75.00;100295.72;10456323;28;20068;-77
2023/01/11 12:44:53;;;;;;;25.10;8.40;;;9.70;99.90;;;7.33;75.34;100286.44;10427253;28;20068;-77
2023/01/11 12:50:19;;;;;;;13.00;5.70;;;9.60;99.90;;;7.28;75.48;100286.88;10477562;28;20065;-77
2023/01/11 12:56:03;;;;;;;40.37;13.23;;;9.60;99.90;;;7.22;75.87;100295.38;10447013;28;20188;-77
2023/01/11 13:01:11;;;;;;;10.43;4.57;;;9.50;99.90;;;7.18;75.79;100297.47;10446430;28;20149;-77
2023/01/11 13:06:55;;;;;;;6.63;4.40;;;9.50;99.90;;;7.12;76.17;100297.19;10495103;28;20423;-77
2023/01/11 13:12:30;;;;;;;6.23;4.20;;;9.40;99.90;;;7.03;76.95;100298.91;10464409;28;20532;-77
2023/01/11 13:17:46;;;;;;;15.40;8.20;;;9.40;99.90;;;7.04;76.04;100297.09;10462822;28;20115;-77
2023/01/11 13:23:01;;;;;;;6.70;3.50;;;9.30;99.90;;;6.97;75.99;100299.47;10455306;28;20116;-77
2023/01/11 13:28:32;;;;;;;9.10;6.53;;;9.20;99.90;;;6.88;76.64;100301.13;10442166;28;20057;-77
2023/01/11 13:33:42;;;;;;;9.13;6.63;;;9.20;99.90;;;6.80;76.73;100300.19;10456022;28;20559;-77
2023/01/11 13:39:21;;;;;;;6.93;4.53;;;9.10;99.90;;;6.75;76.35;100305.88;10488488;28;20081;-75
2023/01/11 13:44:41;;;;;;;5.57;3.63;;;9.10;99.90;;;6.74;75.64;100314.78;10417809;28;20505;-77
2023/01/11 13:50:24;;;;;;;5.17;2.67;;;9.00;99.90;;;6.68;76.37;100315.34;10439656;28;20066;-77
2023/01/11 13:55:53;;;;;;;6.77;3.27;;;9.00;99.90;;;6.64;76.17;100325.34;10453258;28;20454;-77
2023/01/11 14:01:17;;;;;;;9.83;4.27;;;8.90;99.90;;;6.57;75.94;100328.69;10466708;28;20423;-77
2023/01/11 14:06:48;;;;;;;11.43;6.00;;;8.90;99.90;;;6.47;77.08;100318.13;10477141;28;20068;-77
2023/01/11 14:12:34;;;;;;;7.50;4.03;;;8.80;99.90;;;6.32;77.75;100312.44;10478743;28;20057;-77
2023/01/11 14:18:32;;;;;;;5.63;3.00;;;8.70;99.90;;;6.17;78.67;100311.16;10453227;28;20092;-77
2023/01/11 14:23:50;;;;;;;7.70;3.03;;;8.50;99.90;;;6.00;79.15;100307.38;10472015;28;20099;-77
2023/01/11 14:29:02;;;;;;;11.50;4.40;;;8.30;99.90;;;5.88;79.70;100316.34;10447455;28;20061;-77
2023/01/11 14:34:45;;;;;;;8.20;3.73;;;8.20;99.90;;;5.72;80.46;100322.13;10494923;28;20061;-77
2023/01/11 14:40:23;;;;;;;7.00;3.80;;;8.00;99.90;;;5.52;81.64;100313.31;10419881;28;20108;-77
2023/01/11 14:46:03;;;;;;;13.40;6.50;;;7.90;99.90;;;5.32;82.41;100299.19;10457797;28;20392;-77
2023/01/11 14:51:31;;;;;;;9.17;4.43;;;7.70;99.90;;;5.16;83.31;100300.63;10441552;28;20119;-77
2023/01/11 14:56:41;;;;;;;8.10;4.07;;;7.50;99.90;;;5.01;83.97;100306.25;10468282;28;20574;-77
2023/01/11 15:02:02;;;;;;;6.10;3.20;;;7.30;99.90;;;4.86;84.60;100309.31;10498473;28;20127;-77
2023/01/11 15:07:29;;;;;;;7.72;3.53;;;7.20;99.90;;;4.74;85.07;100319.09;10439849;28;20547;-77
2023/01/11 15:12:36;;;;;;;13.00;4.83;;;7.00;99.90;;;4.64;85.61;100305.88;10444768;28;20473;-77
2023/01/11 15:23:04;;;;;;;8.23;4.87;;;6.80;99.90;;;4.45;86.86;100309.19;10453605;28;20069;-77
2023/01/11 15:28:53;;;;;;;12.87;6.17;;;6.70;99.90;;;4.33;87.32;100310.19;10440435;28;20069;-77
2023/01/11 15:34:04;;;;;;;10.07;5.27;;;6.60;99.90;;;4.21;88.01;100308.56;10439124;28;20061;-77
2023/01/11 15:39:09;;;;;;;10.97;4.93;;;6.40;99.90;;;4.10;88.73;100309.41;10432799;28;20494;-77
2023/01/11 15:44:52;;;;;;;12.43;6.27;;;6.40;99.90;;;4.03;89.03;100309.06;10427668;28;20086;-77
2023/01/11 15:51:14;;;;;;;9.57;4.90;;;6.30;99.90;;;3.98;90.11;100305.97;10463177;28;20404;-77
2023/01/11 15:57:04;;;;;;;9.67;4.90;;;6.30;99.90;;;3.89;90.20;100306.69;10263390;28;20150;-78
2023/01/11 16:02:12;;;;;;;17.47;7.67;;;6.10;99.90;;;3.86;91.14;100308.75;10447218;28;20148;-77
2023/01/11 16:07:32;;;;;;;19.70;9.47;;;6.10;99.90;;;3.79;91.24;100312.84;10438173;28;20085;-78
2023/01/11 16:13:02;;;;;;;19.47;10.93;;;6.10;99.90;;;3.70;91.49;100309.94;10463541;28;20494;-78
2023/01/11 16:18:20;;;;;;;23.97;10.20;;;6.00;99.90;;;3.62;91.46;100307.09;10467737;28;20064;-78
2023/01/11 16:23:24;;;;;;;44.37;20.33;;;5.90;99.90;;;3.49;91.49;100306.41;10420659;28;20057;-78
2023/01/11 16:28:27;;;;;;;41.43;18.13;;;5.80;99.90;;;3.31;91.76;100305.22;10429320;28;20061;-78
2023/01/11 16:33:33;;;;;;;33.27;14.33;;;5.70;99.90;;;3.09;92.35;100308.63;10442330;28;20111;-78
2023/01/11 16:39:06;;;;;;;21.37;9.83;;;5.50;99.90;;;2.86;92.83;100303.34;10454717;28;20065;-79
2023/01/11 16:44:32;;;;;;;21.80;9.83;;;5.30;99.90;;;2.67;93.63;100316.16;10427644;28;20062;-78
2023/01/11 16:49:35;;;;;;;32.87;13.37;;;5.10;99.90;;;2.48;93.75;100321.94;10442875;28;20067;-78
2023/01/11 16:54:40;;;;;;;38.20;16.60;;;4.90;99.90;;;2.29;94.42;100326.88;10476113;28;20119;-79
2023/01/11 16:59:58;;;;;;;25.03;11.60;;;4.70;99.90;;;2.10;94.81;100325.59;10423122;28;20064;-78
2023/01/11 17:05:01;;;;;;;22.40;10.37;;;4.50;99.90;;;2.03;95.89;100336.59;10430723;28;20062;-78
2023/01/11 17:10:19;;;;;;;29.00;13.03;;;4.40;99.90;;;1.98;96.61;100336.97;10436052;28;20057;-78
2023/01/11 17:15:34;;;;;;;18.07;8.90;;;4.40;99.90;;;1.93;97.24;100331.19;10492885;28;20822;-78
2023/01/11 17:20:37;;;;;;;14.63;7.47;;;4.30;99.90;;;1.88;97.66;100331.53;10463408;28;20097;-78
2023/01/11 17:25:41;;;;;;;15.90;7.47;;;4.30;99.90;;;1.82;98.00;100338.97;10419076;28;20141;-78
2023/01/11 17:30:51;;;;;;;16.13;7.93;;;4.20;99.90;;;1.74;98.14;100336.91;10435900;28;20093;-78
2023/01/11 17:35:55;;;;;;;18.13;8.50;;;4.10;99.90;;;1.66;98.56;100336.59;10457185;28;20081;-78
2023/01/11 17:40:59;;;;;;;14.83;7.27;;;4.10;99.90;;;1.56;98.78;100340.78;10446333;28;20083;-78
2023/01/11 17:46:04;;;;;;;16.20;7.00;;;4.00;99.90;;;1.49;99.20;100348.25;10472722;28;20111;-77
2023/01/11 17:51:08;;;;;;;19.40;8.00;;;3.90;99.90;;;1.48;99.90;100356.22;10445532;28;20511;-77
2023/01/11 17:56:36;;;;;;;20.83;9.00;;;3.90;99.90;;;1.49;100.00;100344.78;10463032;28;20067;-77
2023/01/11 18:01:49;;;;;;;26.00;13.07;;;3.90;99.90;;;1.46;100.00;100358.09;10458977;28;20057;-77
2023/01/11 18:07:06;;;;;;;26.03;12.67;;;3.90;99.90;;;1.40;100.00;100359.38;10447247;28;20148;-77
2023/01/11 18:12:25;;;;;;;25.90;12.73;;;3.80;99.90;;;1.28;100.00;100365.44;10461616;28;20068;-78
2023/01/11 18:17:39;;;;;;;25.70;12.17;;;3.70;99.90;;;1.12;100.00;100360.41;10448522;28;20526;-77
2023/01/11 18:23:00;;;;;;;25.13;12.93;;;3.60;99.90;;;0.99;100.00;100357.78;10466242;28;20057;-77
2023/01/11 18:28:25;;;;;;;29.23;13.97;;;3.40;99.90;;;0.85;100.00;100355.25;10444639;28;20065;-80
2023/01/11 18:33:32;;;;;;;39.00;14.02;;;3.30;99.90;;;0.76;100.00;100368.91;10439370;28;20144;-78
2023/01/11 18:38:35;;;;;;;24.40;10.20;;;3.20;99.90;;;0.64;100.00;100367.94;10425598;28;20064;-78
2023/01/11 18:43:38;;;;;;;27.37;12.10;;;3.10;99.90;;;0.52;100.00;100374.81;10446095;28;20057;-80
2023/01/11 18:48:41;;;;;;;29.00;11.47;;;3.00;99.90;;;0.41;100.00;100374.66;10456585;28;20057;-78
2023/01/11 18:53:45;;;;;;;33.37;14.30;;;2.90;99.90;;;0.30;100.00;100386.75;10440332;28;20069;-78
2023/01/11 18:58:47;;;;;;;34.53;14.67;;;2.80;99.90;;;0.22;100.00;100388.06;10386464;28;20136;-79
2023/01/11 19:03:50;;;;;;;29.73;11.40;;;2.70;99.90;;;0.16;100.00;100398.91;10440515;28;20061;-78
2023/01/11 19:08:54;;;;;;;25.43;12.00;;;2.60;99.90;;;0.08;100.00;100403.81;10456241;28;20068;-79
2023/01/11 19:13:57;;;;;;;27.50;12.57;;;2.50;99.90;;;-0.02;100.00;100397.47;10433558;28;20062;-78
2023/01/11 19:19:00;;;;;;;20.03;9.03;;;2.50;99.90;;;-0.10;100.00;100403.16;10451746;28;20152;-76
2023/01/11 19:24:03;;;;;;;18.27;9.40;;;2.40;99.90;;;-0.18;100.00;100401.94;10488518;28;20057;-78
2023/01/11 19:29:07;;;;;;;25.63;11.20;;;2.30;99.90;;;-0.27;100.00;100409.41;10424912;28;20050;-78
2023/01/11 19:34:10;;;;;;;26.13;11.57;;;2.20;99.90;;;-0.30;100.00;100408.75;10440688;28;20061;-78
2023/01/11 19:39:14;;;;;;;27.93;11.30;;;2.20;99.90;;;-0.35;100.00;100424.72;10439668;28;20085;-81
2023/01/11 19:44:17;;;;;;;36.87;13.30;;;2.20;99.90;;;-0.34;100.00;100423.78;10421418;28;20062;-78
2023/01/11 19:49:21;;;;;;;41.73;15.17;;;2.20;99.90;;;-0.39;100.00;100432.84;10443150;28;20062;-78
2023/01/11 19:54:25;;;;;;;39.40;16.40;;;2.10;99.90;;;-0.48;100.00;100425.53;10444677;28;20064;-78
2023/01/11 19:59:28;;;;;;;38.67;14.93;;;2.00;99.90;;;-0.53;100.00;100428.44;10459634;28;20145;-78
2023/01/11 20:04:32;;;;;;;47.10;18.47;;;2.00;99.90;;;-0.61;100.00;100441.09;10430179;28;20065;-79
2023/01/11 20:09:36;;;;;;;53.47;19.37;;;1.90;99.90;;;-0.67;100.00;100442.28;10436411;28;20068;-77
2023/01/11 20:14:39;;;;;;;74.60;25.27;;;1.80;99.90;;;-0.71;100.00;100440.81;10446688;28;20065;-79
2023/01/11 20:19:42;;;;;;;35.93;14.43;;;1.70;99.90;;;-0.81;100.00;100444.88;10453536;28;20065;-78
2023/01/11 20:24:46;;;;;;;27.70;11.73;;;1.70;99.90;;;-0.91;100.00;100435.91;10444076;28;20115;-78
2023/01/11 20:29:49;;;;;;;26.13;12.30;;;1.60;99.90;;;-0.94;100.00;100436.09;10440396;28;20072;-80
2023/01/11 20:34:52;;;;;;;38.03;14.97;;;1.50;99.90;;;-0.98;100.00;100427.59;10456740;28;20065;-80
2023/01/11 20:39:55;;;;;;;32.03;13.40;;;1.50;99.90;;;-1.01;100.00;100438.22;10456180;28;20065;-80
2023/01/11 20:44:58;;;;;;;32.83;11.70;;;1.50;99.90;;;-1.07;100.00;100433.34;10455477;28;20080;-80
2023/01/11 20:50:01;;;;;;;21.93;9.73;;;1.50;99.90;;;-1.13;100.00;100451.97;10446629;28;20053;-80
2023/01/11 20:55:05;;;;;;;21.77;10.17;;;1.40;99.90;;;-1.19;100.00;100447.09;10432094;28;20112;-80
2023/01/11 21:00:09;;;;;;;27.27;12.70;;;1.30;99.90;;;-1.26;100.00;100446.59;10457032;28;20427;-80
2023/01/11 21:05:11;;;;;;;27.97;10.30;;;1.30;99.90;;;-1.29;100.00;100453.75;10469999;28;20053;-80
2023/01/11 21:10:14;;;;;;;18.80;9.13;;;1.20;99.90;;;-1.36;100.00;100459.31;10457985;28;20575;-80
2023/01/11 21:15:17;;;;;;;19.60;6.83;;;1.20;99.90;;;-1.41;100.00;100470.91;10460107;28;20146;-80
2023/01/11 21:20:20;;;;;;;18.17;7.57;;;1.10;99.90;;;-1.45;100.00;100470.22;10465197;28;20054;-79
2023/01/11 21:25:23;;;;;;;13.37;6.40;;;1.10;99.90;;;-1.51;100.00;100475.78;10446914;28;20423;-80
2023/01/11 21:30:26;;;;;;;22.47;8.93;;;1.00;99.90;;;-1.57;100.00;100476.13;10443860;28;20061;-79
2023/01/11 21:35:33;;;;;;;26.43;9.57;;;1.00;99.90;;;-1.59;100.00;100482.34;10423763;28;20068;-79
2023/01/11 21:40:36;;;;;;;29.20;11.83;;;0.90;99.90;;;-1.63;100.00;100492.94;10441025;28;20061;-80
2023/01/11 21:45:39;;;;;;;27.40;10.60;;;0.90;99.90;;;-1.63;100.00;100492.09;10433721;28;20065;-79
2023/01/11 21:50:44;;;;;;;35.30;11.83;;;0.90;99.90;;;-1.63;100.00;100494.69;10483018;28;20057;-79
2023/01/11 21:55:48;;;;;;;22.00;8.73;;;0.90;99.90;;;-1.58;100.00;100495.28;10421870;28;20070;-79
2023/01/11 22:00:51;;;;;;;22.47;9.00;;;1.00;99.90;;;-1.55;100.00;100494.31;10438152;28;20057;-80
2023/01/11 22:06:02;;;;;;;18.00;8.17;;;1.00;99.90;;;-1.52;100.00;100497.56;10454715;28;20165;-79